Dane County Regional Truax Field
KMSN : now visible

Airfield :











YOU CAN JOIN US ON...

 
LOGIN :

Register | Disclaimer

   EN    FR    IT 

 









Legend :    VFR   Marginal VFR   IFR   Intensive IFR   Very Intensive IFR
Visi :
Ceiling :
>= 8 km
>= 3000ft
5 to 8 km
1000 to 3000 ft
1500m to 5 km
500 to 1000 ft
800 to 1500m
200 to 500 ft
< 800m
< 200 ft
Symbols :   Thunderstorms  Fog  Heavy snow  Heavy precipitations  Wind > 20 kt






- Airport Elevation : 887 ft
- IATA code : MSN


KMSN - Dane County Regional Truax Field

CURRENT METAR :
  • 200453Z AUTO 29003KT 10SM OVC065 01/M04 A3000 RMK AO2 SLP169 T00111044

EXPIRED METARs :
  • 200353Z 32005KT 10SM FEW065 BKN210 02/M05 A3000 RMK AO2 SLP166 LAST T00171050
  • 200253Z 30004KT 10SM BKN065 BKN200 02/M06 A3000 RMK AO2 SLP166 T00221056 51018
  • 200153Z 30005KT 10SM BKN065 BKN190 03/M06 A2999 RMK AO2 SLP163 T00281061

TAF KMSN
Valid from the 20 at 04:00 until the 21 at 00:00 UTC


200347Z 2004/2024 30004KT P6SM BKN070 BKN200
FM201600 34004KT P6SM SCT060 OVC100
KZAU FIR / North America



MET'MAP, your aeronautical weather chart ! - Copyright ORBIFLY December 2007 - Disclaimer

ORBIFLY MET'MAP TEAM :

Programming & Development : Alexandra Zaïnal
Concept & original design : Baudouin d'Aumeries
Assistance for programming : Marc-Olivier Méhu
Technical & hardware support : Manuel Goepfert

Contact : metmap@orbifly.com




SOURCES & CREDITS :

   NOAA       Earth
Advisory